createdAt,value
2019-02-04T00:01:43.998Z,15.60
2019-02-04T00:04:12.702Z,15.58
2019-02-04T00:06:41.377Z,15.23
2019-02-04T00:09:49.926Z,14.45
2019-02-04T00:12:18.581Z,15.35
2019-02-04T00:14:46.972Z,15.05
2019-02-04T00:17:15.366Z,15.68
2019-02-04T00:19:43.771Z,15.10
2019-02-04T00:22:13.882Z,14.03
2019-02-04T00:24:42.292Z,14.07
2019-02-04T00:27:11.008Z,15.20
2019-02-04T00:29:39.413Z,14.78
2019-02-04T00:32:07.800Z,14.85
2019-02-04T00:34:36.550Z,15.10
2019-02-04T00:37:06.981Z,15.38
2019-02-04T00:39:35.374Z,14.13
2019-02-04T00:42:03.849Z,14.80
2019-02-04T00:44:32.237Z,14.60
2019-02-04T00:47:00.646Z,14.55
2019-02-04T00:49:29.038Z,14.65
2019-02-04T00:51:59.191Z,14.68
2019-02-04T00:54:27.599Z,14.20
2019-02-04T00:56:55.993Z,15.25
2019-02-04T00:59:24.636Z,14.25
2019-02-04T01:01:53.029Z,14.75
2019-02-04T01:04:21.503Z,14.35
2019-02-04T01:06:51.619Z,13.95
2019-02-04T01:09:20.408Z,13.60
2019-02-04T01:11:48.804Z,14.03
2019-02-04T01:14:17.815Z,15.03
2019-02-04T01:16:46.222Z,14.78
2019-02-04T01:19:14.611Z,14.43
2019-02-04T01:21:45.114Z,15.20
2019-02-04T01:24:13.513Z,13.22
2019-02-04T01:26:42.169Z,15.32
2019-02-04T01:29:10.790Z,14.45
2019-02-04T01:31:39.499Z,15.43
2019-02-04T01:34:27.647Z,15.35
2019-02-04T01:36:56.046Z,14.83
2019-02-04T01:39:24.688Z,14.80
2019-02-04T01:41:53.076Z,15.20
2019-02-04T01:44:21.469Z,14.10
2019-02-04T01:46:51.648Z,15.88
2019-02-04T01:49:20.045Z,16.30
2019-02-04T01:51:48.450Z,15.58
2019-02-04T01:54:16.836Z,15.75
2019-02-04T01:56:45.248Z,15.10
2019-02-04T01:59:13.642Z,15.75
2019-02-04T02:02:01.388Z,15.93
2019-02-04T02:04:29.776Z,14.98
2019-02-04T02:06:58.480Z,15.30
2019-02-04T02:09:27.120Z,14.90
2019-02-04T02:11:55.582Z,15.43
2019-02-04T02:14:25.710Z,15.50
2019-02-04T02:16:54.104Z,15.05
2019-02-04T02:19:22.493Z,15.28
2019-02-04T02:21:50.893Z,14.70
2019-02-04T02:24:19.284Z,14.83
2019-02-04T02:26:47.969Z,14.93
2019-02-04T02:29:18.082Z,15.30
2019-02-04T02:31:46.491Z,15.80
2019-02-04T02:34:34.216Z,16.00
2019-02-04T02:37:02.616Z,16.40
2019-02-04T02:39:32.725Z,15.45
2019-02-04T02:42:01.374Z,16.90
2019-02-04T02:44:29.772Z,17.23
2019-02-04T02:46:58.396Z,16.62
2019-02-04T02:49:27.046Z,18.20
2019-02-04T02:51:55.435Z,16.45
2019-02-04T02:54:23.836Z,16.57
2019-02-04T02:56:52.234Z,16.23
2019-02-04T02:59:20.958Z,19.60
2019-02-04T03:01:49.604Z,16.70
2019-02-04T03:04:17.996Z,16.87
2019-02-04T03:06:46.408Z,16.80
2019-02-04T03:09:14.799Z,17.17
2019-02-04T03:11:43.185Z,18.15
2019-02-04T03:14:11.591Z,17.32
2019-02-04T03:16:40.329Z,17.15
2019-02-04T03:19:09.014Z,18.67
2019-02-04T03:21:37.404Z,16.90
2019-02-04T03:24:25.149Z,17.35
2019-02-04T03:26:53.804Z,18.17
2019-02-04T03:29:22.205Z,19.02
2019-02-04T03:31:50.880Z,18.40
2019-02-04T03:34:19.569Z,18.48
2019-02-04T03:37:09.026Z,19.30
2019-02-04T03:39:37.719Z,18.57
2019-02-04T03:42:06.504Z,18.45
2019-02-04T03:44:34.928Z,19.42
2019-02-04T03:47:03.303Z,19.37
2019-02-04T03:49:31.712Z,20.35
2019-02-04T03:52:00.114Z,21.93
2019-02-04T03:54:28.743Z,19.50
2019-02-04T03:56:57.150Z,18.35
2019-02-04T03:59:25.546Z,19.70
2019-02-04T04:01:53.953Z,19.10
2019-02-04T04:04:22.633Z,19.20
2019-02-04T04:06:51.042Z,20.82
2019-02-04T04:09:19.438Z,19.70
2019-02-04T04:11:48.177Z,18.75
2019-02-04T04:14:16.879Z,19.98
2019-02-04T04:16:45.276Z,19.55
2019-02-04T04:19:13.666Z,19.95
2019-02-04T04:21:42.409Z,20.23
2019-02-04T04:24:10.805Z,20.60
2019-02-04T04:26:39.286Z,20.20
2019-02-04T04:29:07.678Z,20.32
2019-02-04T04:31:36.074Z,19.80
2019-02-04T04:34:06.439Z,20.25
2019-02-04T04:36:34.837Z,19.37
2019-02-04T04:41:58.192Z,20.12
2019-02-04T04:44:26.683Z,20.55
2019-02-04T04:46:55.382Z,20.70
2019-02-04T04:49:23.780Z,20.70
2019-02-04T04:51:52.188Z,22.48
2019-02-04T04:54:20.582Z,21.37
2019-02-04T04:56:49.306Z,22.02
2019-02-04T04:59:19.420Z,22.80
2019-02-04T05:01:47.887Z,22.55
2019-02-04T05:04:16.591Z,21.33
2019-02-04T05:07:04.356Z,20.85
2019-02-04T05:09:34.458Z,22.60
2019-02-04T05:12:03.131Z,22.35
2019-02-04T05:14:31.533Z,21.30
2019-02-04T05:16:59.943Z,22.93
2019-02-04T05:19:28.338Z,21.50
2019-02-04T05:21:56.753Z,22.70
2019-02-04T05:24:26.866Z,20.45
2019-02-04T05:26:55.260Z,22.00
2019-02-04T05:29:23.666Z,21.90
2019-02-04T05:31:52.060Z,20.32
2019-02-04T05:34:20.793Z,22.82
2019-02-04T05:36:49.185Z,19.25
2019-02-04T05:39:19.302Z,21.15
2019-02-04T05:41:47.978Z,20.57
2019-02-04T05:44:16.664Z,22.37
2019-02-04T05:46:45.366Z,21.70
2019-02-04T05:49:14.138Z,20.48
2019-02-04T05:51:42.533Z,20.90
2019-02-04T05:54:12.941Z,21.80
2019-02-04T05:56:41.337Z,20.82
2019-02-04T05:59:29.081Z,22.93
2019-02-04T06:01:57.479Z,21.00
2019-02-04T06:04:25.875Z,22.70
2019-02-04T06:06:56.003Z,22.60
2019-02-04T06:09:24.717Z,22.85
2019-02-04T06:11:53.417Z,23.00
2019-02-04T06:14:21.819Z,20.15
2019-02-04T06:16:50.205Z,24.37
2019-02-04T06:19:25.891Z,22.90
2019-02-04T06:21:54.282Z,22.25
2019-02-04T06:24:22.689Z,23.35
2019-02-04T06:26:51.138Z,24.23
2019-02-04T06:29:19.775Z,23.65
2019-02-04T06:31:48.182Z,23.52
2019-02-04T06:34:18.298Z,25.15
2019-02-04T06:36:46.702Z,23.85
2019-02-04T06:39:15.131Z,24.20
2019-02-04T06:41:43.543Z,25.52
2019-02-04T06:44:11.926Z,25.57
2019-02-04T06:46:40.339Z,24.92
2019-02-04T06:49:12.345Z,25.95
2019-02-04T06:51:38.849Z,25.05
2019-02-04T06:54:07.253Z,22.58
2019-02-04T06:56:36.166Z,25.65
2019-02-04T06:59:05.777Z,27.73
2019-02-04T07:01:34.176Z,25.55
2019-02-04T07:04:02.575Z,25.80
2019-02-04T07:06:30.972Z,26.00
2019-02-04T07:08:59.367Z,25.48
2019-02-04T07:11:27.794Z,25.90
2019-02-04T07:13:56.193Z,28.05
2019-02-04T07:16:24.590Z,26.70
2019-02-04T07:18:52.994Z,29.60
2019-02-04T07:21:23.170Z,28.85
2019-02-04T07:23:51.850Z,28.73
2019-02-04T07:26:20.550Z,29.30
2019-02-04T07:28:48.947Z,27.13
2019-02-04T07:31:17.350Z,26.48
2019-02-04T07:33:45.754Z,30.97
2019-02-04T07:36:14.465Z,27.27
2019-02-04T07:38:42.857Z,27.32
2019-02-04T07:41:14.434Z,28.17
2019-02-04T07:43:41.966Z,26.93
2019-02-04T07:46:10.363Z,27.45
2019-02-04T07:48:38.801Z,27.50
2019-02-04T07:51:07.507Z,30.65
2019-02-04T07:53:36.050Z,29.00
2019-02-04T07:56:04.538Z,26.77
2019-02-04T07:58:32.906Z,28.83
2019-02-04T08:01:01.308Z,27.77
2019-02-04T08:03:30.005Z,29.15
2019-02-04T08:05:58.411Z,30.62
2019-02-04T08:08:26.884Z,29.70
2019-02-04T08:10:55.268Z,31.87
2019-02-04T08:13:23.931Z,29.87
2019-02-04T08:15:52.322Z,30.00
2019-02-04T08:18:20.726Z,31.73
2019-02-04T08:20:49.122Z,34.50
2019-02-04T08:23:17.541Z,29.80
2019-02-04T08:25:45.924Z,31.90
2019-02-04T08:28:14.311Z,32.10
2019-02-04T08:30:42.781Z,30.92
2019-02-04T08:33:11.170Z,34.30
2019-02-04T08:35:39.650Z,31.68
2019-02-04T08:38:08.438Z,31.40
2019-02-04T08:40:38.548Z,34.25
2019-02-04T08:43:07.256Z,31.27
2019-02-04T08:45:35.808Z,32.93
2019-02-04T08:50:59.211Z,33.08
2019-02-04T08:53:27.602Z,33.63
2019-02-04T08:55:56.009Z,31.37
2019-02-04T08:58:24.396Z,30.85
2019-02-04T09:00:52.813Z,29.92
2019-02-04T09:03:21.510Z,29.00
2019-02-04T09:05:50.196Z,30.15
2019-02-04T09:08:18.603Z,29.05
2019-02-04T09:10:47.060Z,27.50
2019-02-04T09:13:15.449Z,28.25
2019-02-04T09:15:44.121Z,25.92
2019-02-04T09:18:12.514Z,27.07
2019-02-04T09:20:41.185Z,28.30
2019-02-04T09:23:09.578Z,29.45
2019-02-04T09:25:38.431Z,29.45
2019-02-04T09:28:07.076Z,27.73
2019-02-04T09:30:35.737Z,27.25
2019-02-04T09:35:58.768Z,27.52
2019-02-04T09:38:27.121Z,26.52
2019-02-04T09:40:55.600Z,26.48
2019-02-04T09:43:24.348Z,25.02
2019-02-04T09:45:53.046Z,26.25
2019-02-04T09:48:41.075Z,27.77
2019-02-04T09:51:09.472Z,27.90
2019-02-04T09:53:37.949Z,26.93
2019-02-04T09:56:06.483Z,26.62
2019-02-04T09:58:34.874Z,26.37
2019-02-04T10:01:04.369Z,26.12
2019-02-04T10:03:33.898Z,26.95
2019-02-04T10:06:02.305Z,25.82
2019-02-04T10:08:30.695Z,25.32
2019-02-04T10:10:59.089Z,23.45
2019-02-04T10:13:27.718Z,24.00
2019-02-04T10:15:56.113Z,22.95
2019-02-04T10:18:24.792Z,23.87
2019-02-04T10:20:53.497Z,22.80
2019-02-04T10:23:22.212Z,22.10
2019-02-04T10:25:50.602Z,20.92
2019-02-04T10:28:19.239Z,19.65
2019-02-04T10:30:48.010Z,18.87
2019-02-04T10:33:16.662Z,19.15
2019-02-04T10:35:45.211Z,19.40
2019-02-04T10:38:16.387Z,20.08
2019-02-04T10:40:44.096Z,19.05
2019-02-04T10:43:31.831Z,17.25
2019-02-04T10:46:00.547Z,16.25
2019-02-04T10:48:28.969Z,17.23
2019-02-04T10:50:57.720Z,17.15
2019-02-04T10:53:26.370Z,17.07
2019-02-04T10:55:54.816Z,15.93
2019-02-04T10:58:23.527Z,18.10
2019-02-04T11:00:52.237Z,16.10
2019-02-04T11:03:20.951Z,13.95
2019-02-04T11:05:49.634Z,14.60
2019-02-04T11:08:18.155Z,13.25
2019-02-04T11:10:46.531Z,15.00
2019-02-04T11:13:54.874Z,12.30
2019-02-04T11:16:23.237Z,12.25
2019-02-04T11:18:51.947Z,12.58
2019-02-04T11:21:20.407Z,13.58
2019-02-04T11:23:49.102Z,11.78
2019-02-04T11:26:17.513Z,11.35
2019-02-04T11:28:45.894Z,11.80
2019-02-04T11:31:14.555Z,13.58
2019-02-04T11:33:43.224Z,12.45
2019-02-04T11:36:11.677Z,13.90
2019-02-04T11:38:40.093Z,12.90
2019-02-04T11:41:48.418Z,11.75
2019-02-04T11:44:17.174Z,12.60
2019-02-04T11:46:45.893Z,13.38
2019-02-04T11:49:14.264Z,12.65
2019-02-04T11:51:42.678Z,13.08
2019-02-04T11:54:11.081Z,12.95
2019-02-04T11:56:39.796Z,13.05
2019-02-04T11:59:08.189Z,14.35
2019-02-04T12:01:36.592Z,14.47
2019-02-04T12:04:44.896Z,14.73
2019-02-04T12:07:13.815Z,16.10
2019-02-04T12:09:42.208Z,14.47
2019-02-04T12:12:10.929Z,13.38
2019-02-04T12:14:39.335Z,13.50
2019-02-04T12:17:07.729Z,13.85
2019-02-04T12:19:36.470Z,11.88
2019-02-04T12:22:04.935Z,11.93
2019-02-04T12:24:33.641Z,9.85
2019-02-04T12:27:02.033Z,9.18
2019-02-04T12:29:30.703Z,7.10
2019-02-04T12:31:59.391Z,8.45
2019-02-04T12:34:27.783Z,9.20
2019-02-04T12:36:56.458Z,9.40
2019-02-04T12:39:26.583Z,11.43
2019-02-04T12:41:55.035Z,12.43
2019-02-04T12:44:23.451Z,13.03
2019-02-04T12:46:52.228Z,12.40
2019-02-04T12:49:20.698Z,11.15
2019-02-04T12:51:49.088Z,10.85
2019-02-04T12:54:17.993Z,12.20
2019-02-04T12:56:46.407Z,10.58
2019-02-04T12:59:14.795Z,9.05
2019-02-04T13:01:43.518Z,9.78
2019-02-04T13:04:11.909Z,8.78
2019-02-04T13:06:40.316Z,9.35
2019-02-04T13:12:17.072Z,12.58
2019-02-04T13:14:45.464Z,11.20
2019-02-04T13:17:15.590Z,11.70
2019-02-04T13:19:43.989Z,11.73
2019-02-04T13:22:12.453Z,12.35
2019-02-04T13:24:40.865Z,14.03
2019-02-04T13:27:09.255Z,14.33
2019-02-04T13:29:37.649Z,13.75
2019-02-04T13:32:06.123Z,13.78
2019-02-04T13:34:34.517Z,14.18
2019-02-04T13:37:02.924Z,14.18
2019-02-04T13:39:31.316Z,16.15
2019-02-04T13:41:59.719Z,15.38
2019-02-04T13:44:28.114Z,16.52
2019-02-04T13:47:16.189Z,17.30
2019-02-04T13:49:44.579Z,16.15
2019-02-04T13:52:15.268Z,15.40
2019-02-04T13:54:43.377Z,14.95
2019-02-04T13:57:11.838Z,15.48
2019-02-04T13:59:41.963Z,16.17
2019-02-04T14:02:13.343Z,16.35
2019-02-04T14:04:40.881Z,14.73
2019-02-04T14:07:28.627Z,14.87
2019-02-04T14:09:59.271Z,15.48
2019-02-04T14:12:29.259Z,15.18
2019-02-04T14:14:57.654Z,16.20
2019-02-04T14:17:26.056Z,15.80
2019-02-04T14:19:54.448Z,15.05
2019-02-04T14:22:22.866Z,17.73
2019-02-04T14:24:53.322Z,14.83
2019-02-04T14:27:21.713Z,16.95
2019-02-04T14:29:50.374Z,16.60
2019-02-04T14:32:18.791Z,14.03
2019-02-04T14:34:47.188Z,15.55
2019-02-04T14:37:15.915Z,16.20
2019-02-04T14:40:26.001Z,14.13
2019-02-04T14:43:34.553Z,14.38
2019-02-04T14:46:41.551Z,12.75
2019-02-04T14:49:48.543Z,13.65
2019-02-04T14:52:56.042Z,15.23
2019-02-04T14:56:03.048Z,14.93
2019-02-04T14:59:10.273Z,15.00
2019-02-04T15:02:17.284Z,15.50
2019-02-04T15:05:25.950Z,15.60
2019-02-04T15:08:33.654Z,15.45
2019-02-04T15:11:42.209Z,16.30
2019-02-04T15:14:50.524Z,16.48
2019-02-04T15:17:59.238Z,16.25
2019-02-04T15:21:06.236Z,16.15
2019-02-04T15:24:14.779Z,14.87
2019-02-04T15:27:23.094Z,14.10
2019-02-04T15:30:32.010Z,16.17
2019-02-04T15:33:39.248Z,16.23
2019-02-04T15:36:46.467Z,15.48
2019-02-04T15:39:54.778Z,13.30
2019-02-04T15:43:02.012Z,15.65
2019-02-04T15:46:08.988Z,15.30
2019-02-04T15:49:17.356Z,15.58
2019-02-04T15:52:05.090Z,14.78
2019-02-04T15:54:33.497Z,14.38
2019-02-04T15:57:02.198Z,15.70
2019-02-04T15:59:31.019Z,14.83
2019-02-04T16:01:59.809Z,16.48
2019-02-04T16:05:08.370Z,16.75
2019-02-04T16:07:38.494Z,16.48
2019-02-04T16:10:46.804Z,15.90
2019-02-04T16:13:15.191Z,14.07
2019-02-04T16:15:45.300Z,16.10
2019-02-04T16:18:14.047Z,14.55
2019-02-04T16:20:42.504Z,16.70
2019-02-04T16:23:10.927Z,16.75
2019-02-04T16:25:39.305Z,16.23
2019-02-04T16:28:07.768Z,17.52
2019-02-04T16:30:38.198Z,17.23
2019-02-04T16:33:06.650Z,18.62
2019-02-04T16:35:35.064Z,17.87
2019-02-04T16:38:43.374Z,17.27
2019-02-04T16:41:11.780Z,18.52
2019-02-04T16:43:40.169Z,16.80
2019-02-04T16:46:08.925Z,18.15
2019-02-04T16:48:37.316Z,17.50
2019-02-04T16:51:11.666Z,18.00
2019-02-04T16:53:36.111Z,18.07
2019-02-04T16:56:04.569Z,19.82
2019-02-04T16:58:32.952Z,20.12
2019-02-04T17:01:01.356Z,19.85
2019-02-04T17:03:29.743Z,18.87
2019-02-04T17:05:58.139Z,19.82
2019-02-04T17:08:26.531Z,20.25
2019-02-04T17:10:55.172Z,19.65
2019-02-04T17:16:11.982Z,19.20
2019-02-04T17:18:40.374Z,20.35
2019-02-04T17:21:10.617Z,20.50
2019-02-04T17:23:39.015Z,18.80
2019-02-04T17:26:07.409Z,19.62
2019-02-04T17:28:35.817Z,20.92
2019-02-04T17:31:04.620Z,20.15
2019-02-04T17:33:33.009Z,20.60
2019-02-04T17:36:01.928Z,19.12
2019-02-04T17:38:30.309Z,19.95
2019-02-04T17:40:58.709Z,20.77
2019-02-04T17:43:27.099Z,20.40
2019-02-04T17:45:55.565Z,20.65
2019-02-04T17:48:24.020Z,22.40
2019-02-04T17:50:52.407Z,22.27
2019-02-04T17:53:21.063Z,21.37
2019-02-04T17:55:49.449Z,23.02
2019-02-04T17:58:17.853Z,23.77
2019-02-04T18:03:35.485Z,21.70
2019-02-04T18:09:11.943Z,23.83
2019-02-04T18:11:42.376Z,24.10
2019-02-04T18:14:11.057Z,21.85
2019-02-04T18:16:39.458Z,22.80
2019-02-04T18:19:08.120Z,22.17
2019-02-04T18:21:36.525Z,22.60
2019-02-04T18:24:44.815Z,23.67
2019-02-04T18:27:13.607Z,23.25
2019-02-04T18:29:41.999Z,22.77
2019-02-04T18:32:12.355Z,22.60
2019-02-04T18:34:40.758Z,23.25
2019-02-04T18:37:10.869Z,21.93
2019-02-04T18:39:39.274Z,23.22
2019-02-04T18:42:07.970Z,24.52
2019-02-04T18:44:57.760Z,24.20
2019-02-04T18:47:26.446Z,24.30
2019-02-04T18:49:54.835Z,23.57
2019-02-04T18:52:25.201Z,21.93
2019-02-04T18:54:53.597Z,22.80
2019-02-04T18:57:22.005Z,22.30
2019-02-04T18:59:50.393Z,24.92
2019-02-04T19:02:19.016Z,24.95
2019-02-04T19:05:27.382Z,22.17
2019-02-04T19:07:56.064Z,21.82
2019-02-04T19:11:04.369Z,22.48
2019-02-04T19:13:36.116Z,22.20
2019-02-04T19:16:22.224Z,22.67
2019-02-04T19:18:50.937Z,21.35
2019-02-04T19:21:19.392Z,22.30
2019-02-04T19:23:47.870Z,22.50
2019-02-04T19:26:16.568Z,22.60
2019-02-04T19:28:45.193Z,22.10
2019-02-04T19:31:13.602Z,22.07
2019-02-04T19:33:42.325Z,21.80
2019-02-04T19:39:45.138Z,22.20
2019-02-04T19:42:13.811Z,21.80
2019-02-04T19:44:42.210Z,20.97
2019-02-04T19:47:10.602Z,21.82
2019-02-04T19:49:39.254Z,21.90
2019-02-04T19:52:07.844Z,21.80
2019-02-04T19:54:36.695Z,21.55
2019-02-04T19:57:07.466Z,21.93
2019-02-04T19:59:36.392Z,22.90
2019-02-04T20:02:44.791Z,22.00
2019-02-04T20:05:53.296Z,22.17
2019-02-04T20:08:22.501Z,21.57
2019-02-04T20:10:53.630Z,21.93
2019-02-04T20:13:22.286Z,21.52
2019-02-04T20:15:51.169Z,22.52
2019-02-04T20:18:19.942Z,23.25
2019-02-04T20:20:49.110Z,23.40
2019-02-04T20:23:17.929Z,23.00
2019-02-04T20:25:48.256Z,24.32
2019-02-04T20:28:16.895Z,23.15
2019-02-04T20:31:25.323Z,22.58
2019-02-04T20:33:53.742Z,24.52
2019-02-04T20:36:22.325Z,23.92
2019-02-04T20:38:51.324Z,24.02
2019-02-04T20:41:19.735Z,26.20
2019-02-04T20:43:48.323Z,25.20
2019-02-04T20:46:16.736Z,25.62
2019-02-04T20:48:45.391Z,25.70
2019-02-04T20:51:13.798Z,26.93
2019-02-04T20:53:42.197Z,26.15
2019-02-04T20:56:10.675Z,24.47
2019-02-04T20:58:39.085Z,24.92
2019-02-04T21:01:07.801Z,25.60
2019-02-04T21:03:36.277Z,26.37
2019-02-04T21:06:06.393Z,24.85
2019-02-04T21:08:34.817Z,25.88
2019-02-04T21:11:03.463Z,25.80
2019-02-04T21:13:32.163Z,25.25
2019-02-04T21:16:00.840Z,28.07
2019-02-04T21:18:29.226Z,25.70
2019-02-04T21:20:59.345Z,26.33
2019-02-04T21:23:27.739Z,26.70
2019-02-04T21:25:56.183Z,27.52
2019-02-04T21:28:24.884Z,24.60
2019-02-04T21:30:53.271Z,27.02
2019-02-04T21:33:21.671Z,25.40
2019-02-04T21:35:52.067Z,28.40
2019-02-04T21:38:20.474Z,26.35
2019-02-04T21:40:48.865Z,26.97
2019-02-04T21:43:17.485Z,26.60
2019-02-04T21:45:45.885Z,25.65
2019-02-04T21:48:14.281Z,25.95
2019-02-04T21:50:42.689Z,28.07
2019-02-04T21:53:11.155Z,29.23
2019-02-04T21:55:39.546Z,26.57
2019-02-04T21:58:08.401Z,28.62
2019-02-04T22:01:16.937Z,27.02
2019-02-04T22:03:45.603Z,28.35
2019-02-04T22:06:13.992Z,25.77
2019-02-04T22:08:42.388Z,28.17
2019-02-04T22:11:10.789Z,28.77
2019-02-04T22:13:39.183Z,28.38
2019-02-04T22:16:07.910Z,27.65
2019-02-04T22:18:36.298Z,27.17
2019-02-04T22:21:44.867Z,27.00
2019-02-04T22:24:14.979Z,27.10
2019-02-04T22:26:43.365Z,27.30
2019-02-04T22:29:13.490Z,25.70
2019-02-04T22:31:41.879Z,25.80
2019-02-04T22:34:12.329Z,27.82
2019-02-04T22:36:40.721Z,26.90
2019-02-04T22:39:10.897Z,27.30
2019-02-04T22:41:39.302Z,28.55
2019-02-04T22:44:07.768Z,29.07
2019-02-04T22:46:36.174Z,26.73
2019-02-04T22:52:12.966Z,26.02
2019-02-04T22:54:41.354Z,27.07
2019-02-04T22:57:09.753Z,26.37
2019-02-04T22:59:38.151Z,26.40
2019-02-04T23:02:48.401Z,29.27
2019-02-04T23:05:16.810Z,28.45
2019-02-04T23:07:45.252Z,28.50
2019-02-04T23:10:14.239Z,27.13
2019-02-04T23:12:42.622Z,27.62
2019-02-04T23:15:11.133Z,27.17
2019-02-04T23:17:39.529Z,28.85
2019-02-04T23:20:48.082Z,25.65
2019-02-04T23:23:16.473Z,26.68
2019-02-04T23:25:44.876Z,26.70
2019-02-04T23:28:13.543Z,28.02
2019-02-04T23:30:41.911Z,29.87
2019-02-04T23:33:10.299Z,27.30
2019-02-04T23:35:38.700Z,28.98
2019-02-04T23:38:07.160Z,28.57
2019-02-04T23:40:35.550Z,27.67
2019-02-04T23:45:59.206Z,26.55
2019-02-04T23:48:47.245Z,26.95
2019-02-04T23:51:15.634Z,27.60
2019-02-04T23:53:45.873Z,26.42
2019-02-04T23:56:14.281Z,27.60
2019-02-04T23:58:42.680Z,27.07
